• Join FlightAware (Why Join?)
  • Login
  • US Flag 
10:52AM EDT


 

Airport Tracker/Info


-or-


 

Live Flight TrackerFlight Track Log ✈ UAL341 ✈ 04-May-2013 ✈ KLGA - KIAH

Flight Track Log - Related Links

Times and Time Zones

All times are in EDT time to prevent confusion due to time zone crossing. See the UAL341 flight status page for this flight to view local times or setup timezone preferences in your user account.

Time Position Orientation Groundspeed Altitude Reporting Facility
EDT Latitude Longitude Course Direction KTS MPH feet Rate Location/Type
11:07AM 40.7500 -73.8000 37° Northeast 193 222 2,700  Level New York TRACON
11:08AM 40.8000 -73.7500 37° Northeast 239 275 5,500 2,880 Climbing New York TRACON
11:09AM 40.8667 -73.7333 11° North 272 313 8,500 3,000 Climbing New York TRACON
11:10AM 40.9167 -73.8167 308° West 301 346 11,500 2,880 Climbing New York TRACON
11:11AM 40.9667 -73.9167 304° West 312 359 14,300 1,800 Climbing New York TRACON
11:12AM 40.9833 -74.0167 282° West 331 381 15,100 360 Climbing New York TRACON
11:13AM 40.9500 -74.1333 249° West 329 379 15,100  Level New York TRACON
11:14AM 40.9000 -74.2500 240° Southwest 370 426 15,200 900 Climbing New York TRACON
11:15AM 40.8500 -74.3667 240° Southwest 377 434 17,000 840 Climbing New York TRACON
11:16AM 40.7833 -74.5000 271° West 393 452 17,000 300 Level New York TRACON
11:18AM 40.7178 -74.6753 244° Southwest 402 463 17,800 960 Climbing New York Center
11:19AM 40.6683 -74.7875 240° Southwest 402 463 19,400 1,740 Climbing New York Center
11:20AM 40.6036 -74.9094 235° Southwest 402 463 21,300 1,800 Climbing New York Center
11:21AM 40.5325 -75.0308 232° Southwest 418 481 23,100 1,860 Climbing New York Center
11:22AM 40.4569 -75.1597 232° Southwest 438 504 25,000 1,740 Climbing New York Center
11:23AM 40.3833 -75.2886 233° Southwest 449 517 26,600 1,560 Climbing New York Center
11:24AM 40.3075 -75.4197 233° Southwest 449 517 28,200 1,440 Climbing New York Center
11:25AM 40.2292 -75.5558 233° Southwest 455 524 29,600 1,500 Climbing New York Center
11:26AM 40.1489 -75.6833 231° Southwest 460 529 31,200 1,860 Climbing New York Center
11:27AM 40.0617 -75.8236 231° Southwest 465 535 33,300 1,320 Climbing New York Center
11:28AM 39.9833 -75.9481 231° Southwest 465 535 33,900 240 Climbing New York Center
11:29AM 39.9069 -76.0697 231° Southwest 459 528 33,900  Level New York Center
11:30AM 39.8261 -76.1933 230° Southwest 453 521 33,900  Level New York Center
11:31AM 39.7519 -76.3092 230° Southwest 462 532 34,000  Climbing New York Center
11:32AM 39.6353 -76.4994 232° Southwest 455 524 33,900  Descending Washington Center
11:33AM 39.5425 -76.6331 228° Southwest 460 529 34,000  Climbing Washington Center
11:34AM 39.4642 -76.7581 231° Southwest 450 518 34,000  Level Washington Center
11:35AM 39.3881 -76.8778 231° Southwest 450 518 34,000  Level Washington Center
11:36AM 39.3117 -76.9972 230° Southwest 444 511 34,000  Level Washington Center
11:37AM 39.2353 -77.1136 230° Southwest 444 511 34,000  Level Washington Center
11:38AM 39.1586 -77.2325 230° Southwest 439 505 34,000  Level Washington Center
11:39AM 39.0819 -77.3483 230° Southwest 439 505 34,000  Level Washington Center
11:40AM 39.0050 -77.4669 230° Southwest 439 505 34,000  Level Washington Center
11:41AM 38.9347 -77.5717 229° Southwest 439 505 34,000 480 Level Washington Center
11:42AM 38.8489 -77.7053 231° Southwest 439 505 35,000 900 Climbing Washington Center
11:43AM 38.7742 -77.8150 229° Southwest 447 514 35,900 480 Climbing Washington Center
11:44AM 38.6989 -77.9325 231° Southwest 447 514 36,000  Climbing Washington Center
11:45AM 38.6214 -78.0497 230° Southwest 447 514 36,000  Level Washington Center
11:46AM 38.5397 -78.1692 229° Southwest 447 514 36,000  Level Washington Center
11:47AM 38.4600 -78.2883 230° Southwest 447 514 36,000  Level Washington Center
11:48AM 38.3781 -78.4097 229° Southwest 447 514 36,000  Level Washington Center
11:49AM 38.3000 -78.5311 231° Southwest 447 514 36,000  Level Washington Center
11:50AM 38.2219 -78.6444 229° Southwest 442 509 36,000  Level Washington Center
11:51AM 38.1419 -78.7625 229° Southwest 442 509 36,000  Level Washington Center
11:52AM 38.0614 -78.8831 230° Southwest 442 509 36,000  Level Washington Center
11:53AM 37.9789 -79.0008 228° Southwest 442 509 36,000  Level Washington Center
11:54AM 37.8917 -79.1308 230° Southwest 442 509 36,000  Level Washington Center
11:55AM 37.8272 -79.2647 239° Southwest 442 509 36,000  Level Washington Center
11:56AM 37.7625 -79.3981 238° Southwest 442 509 36,000  Level Washington Center
11:57AM 37.6983 -79.5156 235° Southwest 455 524 36,000  Level Washington Center
11:58AM 37.6267 -79.6614 238° Southwest 455 524 36,000  Level Washington Center
11:59AM 37.5661 -79.7786 237° Southwest 455 524 36,000  Level Washington Center
12:00PM 37.4919 -79.9292 238° Southwest 455 524 36,000  Level Washington Center
12:01PM 37.4225 -80.0636 237° Southwest 455 524 36,000  Level Washington Center
12:02PM 37.3567 -80.1983 238° Southwest 455 524 36,000  Level Washington Center
12:03PM 37.3222 -80.2628 236° Southwest 463 533 36,000  Level Atlanta Center
12:04PM 37.2572 -80.3936 238° Southwest 458 527 36,000  Level Atlanta Center
12:05PM 37.1883 -80.5297 238° Southwest 458 527 36,000  Level Atlanta Center
12:06PM 37.1231 -80.6575 237° Southwest 453 521 36,000  Level Atlanta Center
12:07PM 37.0481 -80.8064 238° Southwest 453 521 36,000  Level Atlanta Center
12:08PM 36.9806 -80.9389 238° Southwest 453 521 36,000  Level Atlanta Center
12:09PM 36.9150 -81.0689 238° Southwest 453 521 36,100 840 Climbing Atlanta Center
12:10PM 36.8472 -81.2011 237° Southwest 453 521 37,700 900 Climbing Atlanta Center
12:11PM 36.7892 -81.3094 236° Southwest 448 516 38,000 120 Climbing Atlanta Center
12:12PM 36.7314 -81.4331 240° Southwest 425 489 38,000  Level Atlanta Center
12:13PM 36.6592 -81.5700 237° Southwest 425 489 38,000  Level Atlanta Center
12:14PM 36.5947 -81.6936 237° Southwest 430 495 38,000  Level Atlanta Center
12:15PM 36.5283 -81.8194 237° Southwest 430 495 38,000  Level Atlanta Center
12:16PM 36.4678 -81.9322 236° Southwest 436 502 38,000  Level Atlanta Center
12:17PM 36.4031 -82.0550 237° Southwest 436 502 38,000  Level Atlanta Center
12:18PM 36.3361 -82.1831 237° Southwest 442 509 38,000  Level Atlanta Center
12:19PM 36.2714 -82.3056 237° Southwest 442 509 38,000  Level Atlanta Center
12:20PM 36.2042 -82.4306 236° Southwest 442 509 38,000  Level Atlanta Center
12:21PM 36.1389 -82.5500 236° Southwest 442 509 38,000  Level Atlanta Center
12:22PM 36.0758 -82.6772 239° Southwest 442 509 38,000  Level Atlanta Center
12:23PM 36.0083 -82.8014 236° Southwest 442 509 38,000  Level Atlanta Center
12:24PM 35.9406 -82.9231 235° Southwest 442 509 38,000  Level Atlanta Center
12:25PM 35.8750 -83.0469 237° Southwest 447 514 38,000  Level Atlanta Center
12:26PM 35.8028 -83.1783 236° Southwest 442 509 38,000  Level Atlanta Center
12:27PM 35.7453 -83.2892 237° Southwest 437 503 38,000  Level Atlanta Center
12:28PM 35.6792 -83.4125 237° Southwest 437 503 38,000  Level Atlanta Center
12:29PM 35.6128 -83.5331 236° Southwest 437 503 38,000  Level Atlanta Center
12:30PM 35.5403 -83.6583 235° Southwest 437 503 38,000  Level Atlanta Center
12:31PM 35.4761 -83.7811 237° Southwest 432 497 38,000  Level Atlanta Center
12:32PM 35.4072 -83.8986 234° Southwest 432 497 38,000  Level Atlanta Center
12:33PM 35.3428 -84.0158 236° Southwest 426 490 38,000  Level Atlanta Center
12:34PM 35.2800 -84.1328 237° Southwest 421 484 38,000  Level Atlanta Center
12:35PM 35.2133 -84.2472 235° Southwest 421 484 38,000  Level Atlanta Center
12:36PM 35.1503 -84.3614 236° Southwest 421 484 38,000  Level Atlanta Center
12:37PM 35.0875 -84.4778 237° Southwest 416 479 38,000  Level Atlanta Center
12:38PM 35.0203 -84.5917 234° Southwest 421 484 38,000  Level Atlanta Center
12:39PM 34.9550 -84.7053 235° Southwest 421 484 38,000  Level Atlanta Center
12:40PM 34.8894 -84.8211 235° Southwest 421 484 38,000  Level Atlanta Center
12:41PM 34.8242 -84.9394 236° Southwest 421 484 38,000  Level Atlanta Center
12:42PM 34.7586 -85.0525 235° Southwest 421 484 38,000  Level Atlanta Center
12:43PM 34.6928 -85.1681 235° Southwest 421 484 38,000  Level Atlanta Center
12:44PM 34.6250 -85.2858 235° Southwest 421 484 38,000  Level Atlanta Center
12:45PM 34.5589 -85.4008 235° Southwest 421 484 38,000  Level Atlanta Center
12:46PM 34.4931 -85.5131 235° Southwest 421 484 38,000  Level Atlanta Center
12:47PM 34.4289 -85.6253 235° Southwest 421 484 38,000  Level Atlanta Center
12:48PM 34.3692 -85.7325 236° Southwest 421 484 38,000  Level Atlanta Center
12:49PM 34.2922 -85.8542 233° Southwest 421 484 38,000  Level Atlanta Center
12:50PM 34.2258 -85.9683 235° Southwest 421 484 38,000  Level Atlanta Center
12:51PM 34.1572 -86.0822 234° Southwest 426 490 38,000  Level Atlanta Center
12:52PM 34.0883 -86.2008 235° Southwest 431 496 38,000  Level Atlanta Center
12:53PM 34.0175 -86.3144 233° Southwest 431 496 38,000  Level Atlanta Center
12:54PM 33.9506 -86.4303 235° Southwest 431 496 38,000  Level Atlanta Center
12:55PM 33.8794 -86.5458 233° Southwest 431 496 38,000  Level Atlanta Center
12:56PM 33.8189 -86.6492 235° Southwest 431 496 38,000  Level Atlanta Center
12:57PM 33.7494 -86.7644 234° Southwest 431 496 38,000  Level Atlanta Center
12:58PM 33.6800 -86.8822 235° Southwest 431 496 38,000  Level Atlanta Center
12:59PM 33.6456 -87.0158 253° West 418 481 38,000  Level Atlanta Center
01:00PM 33.6253 -87.1572 260° West 423 487 38,000  Level Atlanta Center
01:01PM 33.5922 -87.3747 260° West 438 504 38,000  Level Memphis Center
01:02PM 33.5664 -87.5253 258° West 438 504 38,000  Level Memphis Center
01:03PM 33.5444 -87.6628 259° West 428 493 38,000  Level Memphis Center
01:04PM 33.5203 -87.8033 258° West 428 493 38,000  Level Memphis Center
01:05PM 33.4958 -87.9408 258° West 428 493 38,000  Level Memphis Center
01:06PM 33.4733 -88.0786 259° West 428 493 38,000  Level Memphis Center
01:07PM 33.4550 -88.2158 261° West 428 493 38,000  Level Memphis Center
01:08PM 33.4303 -88.3533 258° West 428 493 38,000  Level Memphis Center
01:09PM 33.4072 -88.4883 258° West 428 493 38,000  Level Memphis Center
01:10PM 33.3842 -88.6231 258° West 428 493 38,000  Level Memphis Center
01:11PM 33.3589 -88.7581 257° West 428 493 38,000  Level Memphis Center
01:12PM 33.3353 -88.8903 258° West 421 484 38,000  Level Memphis Center
01:13PM 33.3119 -89.0247 258° West 414 476 38,000  Level Memphis Center
01:14PM 33.2881 -89.1544 258° West 414 476 38,000  Level Memphis Center
01:15PM 33.2622 -89.2839 257° West 414 476 38,000  Level Memphis Center
01:16PM 33.2422 -89.4033 259° West 414 476 38,000  Level Memphis Center
01:17PM 33.2181 -89.5328 257° West 409 471 38,000  Level Memphis Center
01:18PM 33.1939 -89.6647 258° West 409 471 38,000  Level Memphis Center
01:19PM 33.1611 -89.7964 253° West 409 471 38,000  Level Memphis Center
01:20PM 33.1158 -89.9208 247° West 420 483 38,000  Level Memphis Center
01:21PM 33.0639 -90.0425 243° Southwest 420 483 38,000  Level Memphis Center
01:22PM 33.0161 -90.1639 245° Southwest 413 475 38,000  Level Memphis Center
01:23PM 32.9619 -90.2928 243° Southwest 402 463 38,000  Level Memphis Center
01:24PM 32.9142 -90.4117 244° Southwest 402 463 38,000  Level Memphis Center
01:25PM 32.8703 -90.5231 245° Southwest 396 456 38,000  Level Memphis Center
01:26PM 32.8239 -90.6367 244° Southwest 391 450 38,000  Level Memphis Center
01:27PM 32.7736 -90.7525 243° Southwest 391 450 38,000  Level Memphis Center
01:28PM 32.7294 -90.8661 245° Southwest 386 444 38,000  Level Memphis Center
01:29PM 32.6831 -90.9817 245° Southwest 386 444 38,000  Level Memphis Center
01:30PM 32.6364 -91.0900 243° Southwest 386 444 38,000  Level Memphis Center
01:33PM 32.5372 -91.3433 245° Southwest 376 433 38,000  Level Houston Center
01:34PM 32.4808 -91.4772 243° Southwest 379 436 38,000  Level Houston Center
01:35PM 32.4353 -91.5914 245° Southwest 382 440 38,000  Level Houston Center
01:36PM 32.3872 -91.7036 243° Southwest 383 441 38,000  Level Houston Center
01:37PM 32.3383 -91.8139 242° Southwest 379 436 38,000  Level Houston Center
01:38PM 32.2931 -91.9275 245° Southwest 382 440 38,000 -60 Level Houston Center
01:39PM 32.2442 -92.0444 244° Southwest 379 436 37,900  Descending Houston Center
01:40PM 32.1947 -92.1497 241° Southwest 372 428 38,000  Climbing Houston Center
01:41PM 32.1497 -92.2606 244° Southwest 374 430 37,900 -60 Descending Houston Center
01:42PM 32.0931 -92.3917 243° Southwest 374 430 37,900  Level Houston Center
01:43PM 32.0350 -92.4953 237° Southwest 379 436 37,900  Level Houston Center
01:44PM 31.9511 -92.5844 222° Southwest 400 460 37,900  Level Houston Center
01:45PM 31.8683 -92.6725 222° Southwest 401 461 37,900  Level Houston Center
01:46PM 31.7853 -92.7592 222° Southwest 400 460 37,900  Level Houston Center
01:47PM 31.7022 -92.8453 221° Southwest 399 459 37,900  Level Houston Center
01:48PM 31.6028 -92.9469 221° Southwest 395 455 37,900  Level Houston Center
01:49PM 31.5186 -93.0325 221° Southwest 399 459 37,900  Level Houston Center
01:50PM 31.4361 -93.1175 221° Southwest 398 458 37,900  Level Houston Center
01:51PM 31.3528 -93.2031 221° Southwest 399 459 37,900 -180 Level Houston Center
01:52PM 31.2600 -93.2972 221° Southwest 401 461 37,600 -780 Descending Houston Center
01:53PM 31.1844 -93.3733 221° Southwest 399 459 36,400 -840 Descending Houston Center
01:54PM 31.0861 -93.4722 221° Southwest 390 449 35,900 -1,320 Descending Houston Center
01:55PM 31.0042 -93.5569 222° Southwest 394 453 33,700 -2,460 Descending Houston Center
01:56PM 30.9211 -93.6417 221° Southwest 397 457 30,900 -2,520 Descending Houston Center
01:57PM 30.8364 -93.7272 221° Southwest 402 463 28,600 -2,100 Descending Houston Center
01:58PM 30.7542 -93.8083 220° Southwest 395 455 26,600 -2,040 Descending Houston Center
01:59PM 30.6775 -93.8861 221° Southwest 374 430 24,500 -2,220 Descending Houston Center
02:00PM 30.6072 -93.9558 221° Southwest 367 422 22,700 -2,460 Descending Houston Center
02:01PM 30.5850 -93.9789 222° Southwest 370 426 22,000 -2,280 Descending Houston Center
02:01PM 30.5269 -94.0347 220° Southwest 360 414 20,400 -2,160 Descending Houston Center
02:02PM 30.5094 -94.0539 223° Southwest 363 418 19,800 -1,800 Descending Houston Center
02:03PM 30.4392 -94.1278 222° Southwest 349 402 18,000 -1,440 Descending Houston Center
02:03PM 30.4006 -94.1997 238° Southwest 300 345 17,200 -1,500 Descending Houston Center
02:04PM 30.3581 -94.2806 239° Southwest 266 306 15,300 -1,920 Descending Houston Center
02:05PM 30.3197 -94.3606 241° Southwest 269 310 13,300 -1,980 Descending Houston Center
02:06PM 30.3106 -94.3775 238° Southwest 270 311 12,800 -1,680 Descending Houston Center
02:06PM 30.2792 -94.4386 239° Southwest 278 320 11,600 -1,560 Descending Houston Center
02:07PM 30.2706 -94.4547 238° Southwest 278 320 11,200 -660 Descending Houston Center
02:07PM 30.2439 -94.5086 240° Southwest 275 316 11,000 -240 Descending Houston Center
02:08PM 30.2319 -94.5314 239° Southwest 275 316 11,000  Level Houston Center
02:09PM 30.1997 -94.5942 239° Southwest 274 315 11,000  Level Houston Center
02:09PM 30.1933 -94.6072 240° Southwest 275 316 11,000 -1,140 Level Houston Center
02:10PM 30.1611 -94.6717 240° Southwest 270 311 9,900 -1,260 Descending Houston Center
02:10PM 30.1556 -94.6817 237° Southwest 270 311 9,700 -1,380 Descending Houston Center
02:11PM 30.1239 -94.7442 240° Southwest 267 307 8,500 -1,260 Descending Houston Center
02:11PM 30.1186 -94.7550 241° Southwest 266 306 8,400 -1,200 Descending Houston Center
02:12PM 30.0850 -94.8192 239° Southwest 255 293 7,300 -1,260 Descending Houston Center
02:12PM 30.0819 -94.8250 239° Southwest 257 296 7,100 -1,320 Descending Houston Center
02:13PM 30.0478 -94.8914 239° Southwest 252 290 6,000 -1,080 Descending Houston Center
02:13PM 30.0394 -94.9092 242° Southwest 255 293 6,000 -840 Level Houston Center
02:14PM 30.0144 -94.9608 241° Southwest 248 285 5,200 -1,080 Descending Houston Center
02:14PM 30.0119 -94.9792 261° West 242 278 4,900 -1,080 Descending Houston Center
02:15PM 29.9983 -95.0350 254° West 225 259 4,100 -900 Descending Houston Center
02:15PM 29.9972 -95.0492 265° West 228 262 4,000 -540 Descending Houston Center
02:16PM 29.9933 -95.0961 265° West 202 232 3,600 -600 Descending Houston Center
02:16PM 29.9939 -95.1122 272° West 206 237 3,400 -900 Descending Houston Center
02:17PM 29.9922 -95.1517 267° West 169 194 2,700 -1,020 Descending Houston Center
02:17PM 29.9942 -95.1681 278° West 189 217 2,400 -720 Descending Houston Center
02:18PM 29.9933 -95.2069 269° West 162 186 2,000 -600 Descending Houston Center
02:18PM 29.9947 -95.2294 274° West 173 199 1,800 -600 Descending Houston Center
02:19PM 29.9933 -95.2528 266° West 133 153 1,400 -600 Descending Houston Center
02:19PM 29.9936 -95.2711 271° West 153 176 1,200 -540 Descending Houston Center
02:20PM 29.9944 -95.2889 273° West 127 146 900 -600 Descending Houston Center
02:20PM 29.9947 -95.3075 271° West 132 152 600 -360 Descending Houston Center
02:21PM 29.9958 -95.3456 272° West 129 148 400 -240 Descending Houston Center